Time;durP1;ratioP1;P1;durP2;ratioP2;P2;SDS_P1;SDS_P2;PMS_P1;PMS_P2;Temp;Humidity;BMP_temperature;BMP_pressure;BME280_temperature;BME280_humidity;BME280_pressure;Samples;Min_cycle;Max_cycle;Signal;HPM_P1;HPM_P2
2023/01/31 00:00:25;;;;;;;18.30;3.90;;;;;;;4.87;100.00;99741.69;5094215;28;20261;-79
2023/01/31 00:02:54;;;;;;;12.20;4.03;;;;;;;4.85;100.00;99748.75;5096083;28;20200;-79
2023/01/31 00:05:23;;;;;;;17.10;3.70;;;;;;;4.78;100.00;99748.97;5082265;28;20203;-79
2023/01/31 00:07:52;;;;;;;15.20;4.17;;;;;;;4.75;100.00;99749.94;5097358;28;20200;-79
2023/01/31 00:10:20;;;;;;;17.00;3.60;;;;;;;4.72;100.00;99757.03;5087318;28;20226;-78
2023/01/31 00:12:48;;;;;;;21.40;4.23;;;;;;;4.76;100.00;99753.44;5094469;28;20261;-79
2023/01/31 00:15:19;;;;;;;13.53;4.23;;;;;;;4.80;100.00;99749.78;5086295;28;20237;-79
2023/01/31 00:17:51;;;;;;;16.23;3.93;;;;;;;4.70;100.00;99745.72;5091875;28;20255;-78
2023/01/31 00:20:19;;;;;;;14.17;3.60;;;;;;;4.80;100.00;99753.28;5090926;28;20570;-79
2023/01/31 00:22:51;;;;;;;13.53;3.60;;;;;;;4.69;100.00;99750.13;5085299;28;20283;-79
2023/01/31 00:25:19;;;;;;;14.37;3.97;;;;;;;4.79;100.00;99751.56;5091742;28;20249;-79
2023/01/31 00:27:48;;;;;;;13.37;4.17;;;;;;;4.81;100.00;99749.72;5084557;28;20314;-79
2023/01/31 00:30:19;;;;;;;14.53;3.83;;;;;;;4.88;100.00;99745.16;5093297;28;20746;-79
2023/01/31 00:32:48;;;;;;;12.07;3.70;;;;;;;4.71;100.00;99752.69;5094398;28;20187;-79
2023/01/31 00:35:16;;;;;;;23.50;4.67;;;;;;;4.62;100.00;99759.06;5093129;28;20218;-78
2023/01/31 00:37:45;;;;;;;18.67;3.90;;;;;;;4.67;100.00;99759.81;5089559;28;20208;-79
2023/01/31 00:40:15;;;;;;;13.37;3.47;;;;;;;4.71;100.00;99761.41;5086053;28;20250;-79
2023/01/31 00:42:44;;;;;;;16.23;3.73;;;;;;;4.70;100.00;99757.09;5086755;28;20277;-79
2023/01/31 00:45:13;;;;;;;12.60;3.50;;;;;;;4.66;100.00;99758.09;5085131;28;20261;-79
2023/01/31 00:47:42;;;;;;;14.93;4.23;;;;;;;4.71;100.00;99755.31;5091061;28;20188;-79
2023/01/31 00:50:15;;;;;;;15.87;3.60;;;;;;;4.67;100.00;99761.56;5090420;28;20249;-79
2023/01/31 00:52:43;;;;;;;10.60;3.50;;;;;;;4.66;100.00;99758.09;5071575;28;20200;-79
2023/01/31 00:55:12;;;;;;;14.20;4.13;;;;;;;4.63;100.00;99763.41;5093428;28;20241;-78
2023/01/31 00:57:40;;;;;;;21.33;3.97;;;;;;;4.55;100.00;99766.28;5090724;28;20219;-79
2023/01/31 01:00:11;;;;;;;14.20;3.53;;;;;;;4.55;100.00;99760.19;5088354;28;20192;-79
2023/01/31 01:02:40;;;;;;;15.50;3.63;;;;;;;4.63;100.00;99767.81;5093515;28;20249;-79
2023/01/31 01:05:10;;;;;;;15.47;4.10;;;;;;;4.60;100.00;99772.25;5093360;28;20192;-79
2023/01/31 01:07:38;;;;;;;10.47;3.10;;;;;;;4.69;100.00;99780.75;5090676;28;20264;-79
2023/01/31 01:10:07;;;;;;;15.73;4.03;;;;;;;4.49;100.00;99787.44;5088552;28;20714;-79
2023/01/31 01:12:36;;;;;;;15.93;3.70;;;;;;;4.60;100.00;99787.97;5058796;28;20582;-79
2023/01/31 01:15:05;;;;;;;14.23;3.13;;;;;;;4.58;100.00;99786.31;5091933;28;20263;-79
2023/01/31 01:17:34;;;;;;;18.60;3.60;;;;;;;4.70;100.00;99779.84;5087233;28;20679;-78
2023/01/31 01:20:06;;;;;;;13.80;3.90;;;;;;;4.65;100.00;99784.38;5087399;28;20203;-79
2023/01/31 01:22:37;;;;;;;16.50;3.90;;;;;;;4.67;100.00;99787.81;5092116;28;20249;-79
2023/01/31 01:25:06;;;;;;;14.13;3.17;;;;;;;4.50;100.00;99778.66;5093187;28;20249;-79
2023/01/31 01:27:35;;;;;;;15.37;3.53;;;;;;;4.51;100.00;99790.88;5085978;28;20260;-79
2023/01/31 01:30:05;;;;;;;13.33;3.37;;;;;;;4.45;100.00;99792.84;5092714;28;20241;-79
2023/01/31 01:32:33;;;;;;;7.83;2.97;;;;;;;4.59;100.00;99793.28;5092955;28;20241;-79
2023/01/31 01:35:02;;;;;;;14.30;3.57;;;;;;;4.58;100.00;99787.19;5086899;28;20200;-79
2023/01/31 01:37:30;;;;;;;14.20;3.30;;;;;;;4.56;100.00;99789.00;5025663;28;20225;-79
2023/01/31 01:40:00;;;;;;;10.60;3.10;;;;;;;4.53;100.00;99806.56;5027789;28;20201;-78
2023/01/31 01:42:34;;;;;;;10.77;3.40;;;;;;;4.51;100.00;99798.75;5028381;28;20228;-79
2023/01/31 01:45:09;;;;;;;10.90;2.63;;;;;;;4.50;100.00;99807.53;5025296;28;20679;-79
2023/01/31 01:47:43;;;;;;;14.87;3.30;;;;;;;4.46;100.00;99813.78;5023843;28;20208;-79
2023/01/31 01:50:19;;;;;;;12.53;3.00;;;;;;;4.43;100.00;99805.09;5024940;28;20232;-79
2023/01/31 01:52:50;;;;;;;12.73;3.67;;;;;;;4.28;100.00;99806.41;5027914;28;20194;-79
2023/01/31 01:55:25;;;;;;;12.10;2.87;;;;;;;4.41;100.00;99805.16;5049213;28;20195;-79
2023/01/31 01:57:59;;;;;;;14.47;3.43;;;;;;;4.41;100.00;99817.41;5088940;28;20219;-79
2023/01/31 02:00:30;;;;;;;10.73;3.27;;;;;;;4.39;100.00;99811.34;5091339;28;20210;-79
2023/01/31 02:03:01;;;;;;;20.57;3.73;;;;;;;4.37;100.00;99803.53;5089888;28;20200;-79
2023/01/31 02:05:32;;;;;;;13.40;2.93;;;;;;;4.27;100.00;99810.81;5092924;28;20192;-79
2023/01/31 02:08:02;;;;;;;18.50;4.10;;;;;;;4.09;100.00;99805.22;5092790;28;20198;-79
2023/01/31 02:10:37;;;;;;;9.50;3.30;;;;;;;4.08;100.00;99812.22;5092641;28;20234;-79
2023/01/31 02:13:06;;;;;;;11.33;3.57;;;;;;;4.03;100.00;99793.13;5090249;28;20236;-79
2023/01/31 02:15:35;;;;;;;14.80;3.90;;;;;;;3.88;100.00;99794.41;5087252;28;20218;-79
2023/01/31 02:18:04;;;;;;;17.13;3.53;;;;;;;3.97;100.00;99798.53;5083812;28;20268;-78
2023/01/31 02:21:09;;;;;;;13.33;3.83;;;;;;;3.87;100.00;99805.78;5054903;28;20204;-79
2023/01/31 02:24:06;;;;;;;12.07;3.70;;;;;;;3.90;100.00;99808.31;5097689;28;20191;-79
2023/01/31 02:27:12;;;;;;;14.93;3.83;;;;;;;3.79;100.00;99815.59;5092220;28;20191;-79
2023/01/31 02:30:10;;;;;;;17.63;4.13;;;;;;;3.76;100.00;99810.41;5091182;28;20240;-79
2023/01/31 02:33:01;;;;;;;12.90;4.30;;;;;;;3.82;100.00;99815.50;5090747;28;20203;-79
2023/01/31 02:35:47;;;;;;;10.93;4.00;;;;;;;3.84;100.00;99818.09;5089913;28;20215;-79
2023/01/31 02:38:31;;;;;;;15.30;4.70;;;;;;;3.80;100.00;99819.94;5090608;28;20219;-79
2023/01/31 02:41:11;;;;;;;16.20;4.30;;;;;;;3.68;100.00;99823.75;5088554;28;20277;-79
2023/01/31 02:46:44;;;;;;;10.67;3.40;;;;;;;3.76;100.00;99830.53;5092053;28;20192;-79
2023/01/31 02:49:33;;;;;;;16.97;4.33;;;;;;;3.80;100.00;99837.44;5087469;28;20196;-79
2023/01/31 02:52:16;;;;;;;17.53;3.90;;;;;;;3.62;100.00;99836.13;5093261;28;20195;-79
2023/01/31 02:57:39;;;;;;;13.73;4.03;;;;;;;3.61;100.00;99855.34;5096141;28;20280;-79
2023/01/31 03:00:10;;;;;;;16.67;3.63;;;;;;;3.53;100.00;99863.41;5089729;28;20218;-79
2023/01/31 03:02:40;;;;;;;17.30;3.50;;;;;;;3.65;100.00;99863.09;5096149;28;20218;-79
2023/01/31 03:05:14;;;;;;;13.50;3.57;;;;;;;3.57;100.00;99869.41;5097186;28;20199;-79
2023/01/31 03:07:44;;;;;;;15.30;4.03;;;;;;;3.59;100.00;99873.75;5093315;28;20322;-79
2023/01/31 03:10:41;;;;;;;12.83;3.20;;;;;;;3.71;100.00;99883.06;5091644;28;20712;-79
2023/01/31 03:13:22;;;;;;;18.70;3.63;;;;;;;3.69;100.00;99888.34;5092842;28;20756;-79
2023/01/31 03:19:00;;;;;;;11.50;3.03;;;;;;;3.84;100.00;99873.97;5095519;28;20247;-79
2023/01/31 03:21:34;;;;;;;16.37;3.90;;;;;;;3.78;100.00;99873.28;5095150;28;20191;-79
2023/01/31 03:24:06;;;;;;;12.53;3.07;;;;;;;3.81;100.00;99878.44;5095612;28;20607;-79
2023/01/31 03:26:36;;;;;;;16.07;4.00;;;;;;;3.68;100.00;99870.91;5095508;28;20184;-79
2023/01/31 03:29:08;;;;;;;15.40;2.97;;;;;;;3.81;100.00;99881.06;5095428;28;20188;-79
2023/01/31 03:31:40;;;;;;;10.43;2.77;;;;;;;3.87;100.00;99881.78;5091199;28;20646;-79
2023/01/31 03:34:11;;;;;;;11.40;2.70;;;;;;;3.70;100.00;99878.72;5093840;28;20200;-78
2023/01/31 03:36:49;;;;;;;13.33;3.47;;;;;;;3.75;100.00;99887.28;5094077;28;20322;-79
2023/01/31 03:39:28;;;;;;;8.80;2.60;;;;;;;3.77;100.00;99877.66;5093251;28;20726;-79
2023/01/31 03:42:06;;;;;;;11.90;2.93;;;;;;;3.79;100.00;99881.09;5093758;28;20308;-79
2023/01/31 03:44:41;;;;;;;11.03;2.53;;;;;;;3.56;100.00;99891.25;5092371;28;20282;-78
2023/01/31 03:47:17;;;;;;;9.53;2.17;;;;;;;3.59;100.00;99892.06;5088711;28;20188;-79
2023/01/31 03:49:48;;;;;;;14.23;2.80;;;;;;;3.69;100.00;99888.34;5091376;28;20195;-79
2023/01/31 03:52:23;;;;;;;9.77;2.10;;;;;;;3.61;100.00;99889.41;5094784;28;20268;-79
2023/01/31 03:54:58;;;;;;;8.53;2.60;;;;;;;3.56;100.00;99892.13;5093482;28;20350;-78
2023/01/31 03:57:31;;;;;;;9.10;2.27;;;;;;;3.63;100.00;99885.00;5092073;28;20665;-78
2023/01/31 04:00:03;;;;;;;11.60;2.10;;;;;;;3.59;100.00;99889.44;5088042;28;20215;-78
2023/01/31 04:02:35;;;;;;;7.90;2.27;;;;;;;3.70;100.00;99881.34;5090832;28;20188;-79
2023/01/31 04:05:08;;;;;;;9.63;2.10;;;;;;;3.62;100.00;99883.28;5091093;28;20192;-78
2023/01/31 04:07:38;;;;;;;11.57;2.60;;;;;;;3.47;100.00;99876.63;5059657;28;20192;-78
2023/01/31 04:10:12;;;;;;;10.57;2.37;;;;;;;3.40;100.00;99880.31;5091707;28;20231;-78
2023/01/31 04:12:41;;;;;;;9.77;2.03;;;;;;;3.35;100.00;99883.00;5091703;28;20694;-78
2023/01/31 04:15:11;;;;;;;9.83;2.67;;;;;;;3.28;100.00;99878.84;5090868;28;20200;-78
2023/01/31 04:17:39;;;;;;;9.27;2.47;;;;;;;3.33;100.00;99876.09;5091499;28;20184;-78
2023/01/31 04:20:10;;;;;;;8.90;2.53;;;;;;;3.27;100.00;99884.94;5087745;28;20222;-77
2023/01/31 04:22:42;;;;;;;11.77;2.67;;;;;;;3.20;100.00;99880.75;5090833;28;20288;-78
2023/01/31 04:25:11;;;;;;;13.33;2.97;;;;;;;3.05;100.00;99873.25;5088652;28;20278;-78
2023/01/31 04:27:40;;;;;;;16.43;3.20;;;;;;;2.95;100.00;99874.34;5089873;28;20312;-78
2023/01/31 04:30:10;;;;;;;16.50;3.50;;;;;;;2.87;100.00;99879.72;5067929;28;20210;-78
2023/01/31 04:32:39;;;;;;;14.57;3.97;;;;;;;2.77;100.00;99879.06;5065425;28;20207;-79
2023/01/31 04:35:08;;;;;;;18.37;3.67;;;;;;;2.86;100.00;99868.41;5071615;28;20242;-78
2023/01/31 04:37:36;;;;;;;19.63;3.90;;;;;;;2.81;100.00;99870.25;5071466;28;20200;-78
2023/01/31 04:40:08;;;;;;;14.20;3.57;;;;;;;2.86;100.00;99875.38;5067190;28;20278;-78
2023/01/31 04:42:36;;;;;;;24.20;4.07;;;;;;;2.78;100.00;99872.94;5033576;28;20231;-78
2023/01/31 04:45:05;;;;;;;18.87;4.30;;;;;;;2.71;100.00;99866.13;5064966;28;20656;-78
2023/01/31 04:47:35;;;;;;;16.13;4.07;;;;;;;2.76;100.00;99873.84;5071953;28;20198;-78
2023/01/31 04:50:05;;;;;;;13.30;3.60;;;;;;;2.67;100.00;99872.28;5092542;28;20674;-78
2023/01/31 04:52:33;;;;;;;15.87;3.97;;;;;;;2.62;100.00;99874.16;5090034;28;20192;-78
2023/01/31 04:55:01;;;;;;;20.70;4.07;;;;;;;2.55;100.00;99865.56;5087826;28;20198;-79
2023/01/31 04:57:32;;;;;;;18.50;4.00;;;;;;;2.54;100.00;99866.47;5092509;28;20206;-78
2023/01/31 05:00:00;;;;;;;16.30;4.10;;;;;;;2.48;100.00;99878.78;5089991;28;20211;-78
2023/01/31 05:02:30;;;;;;;15.37;4.00;;;;;;;2.51;100.00;99865.63;5089956;28;20218;-78
2023/01/31 05:04:59;;;;;;;13.93;4.00;;;;;;;2.48;100.00;99869.19;5093553;28;20230;-78
2023/01/31 05:07:27;;;;;;;16.70;4.17;;;;;;;2.48;100.00;99871.78;5096027;28;20204;-79
2023/01/31 05:09:56;;;;;;;15.73;3.97;;;;;;;2.36;100.00;99865.97;5093052;28;20289;-79
2023/01/31 05:12:24;;;;;;;20.77;4.47;;;;;;;2.36;100.00;99865.97;5089004;28;20291;-77
2023/01/31 05:14:56;;;;;;;16.43;4.07;;;;;;;2.40;100.00;99863.22;5086529;28;20249;-78
2023/01/31 05:17:28;;;;;;;20.47;4.53;;;;;;;2.36;100.00;99866.81;5093600;28;20204;-78
2023/01/31 05:19:57;;;;;;;19.67;4.17;;;;;;;2.40;100.00;99868.47;5089759;28;20258;-78
2023/01/31 05:22:26;;;;;;;16.73;4.10;;;;;;;2.28;100.00;99859.13;5093185;28;20203;-78
2023/01/31 05:24:54;;;;;;;14.73;3.83;;;;;;;2.31;100.00;99866.03;5091558;28;20196;-78
2023/01/31 05:27:25;;;;;;;20.17;4.73;;;;;;;2.29;100.00;99857.34;5089543;28;20208;-78
2023/01/31 05:29:54;;;;;;;16.33;3.77;;;;;;;2.26;100.00;99862.66;5093298;28;20196;-78
2023/01/31 05:32:24;;;;;;;21.37;4.47;;;;;;;2.34;100.00;99867.75;5050576;28;20195;-78
2023/01/31 05:34:52;;;;;;;17.80;4.43;;;;;;;2.28;100.00;99863.47;5048620;28;20201;-78
2023/01/31 05:37:22;;;;;;;19.97;3.87;;;;;;;2.31;100.00;99860.81;5046905;28;20185;-78
2023/01/31 05:39:53;;;;;;;19.60;3.70;;;;;;;2.32;100.00;99856.44;5042754;28;20221;-79
2023/01/31 05:42:21;;;;;;;16.20;3.80;;;;;;;2.32;100.00;99861.66;5043312;28;20251;-78
2023/01/31 05:44:50;;;;;;;17.57;3.70;;;;;;;2.33;100.00;99858.19;5046671;28;20203;-78
2023/01/31 05:47:18;;;;;;;14.70;3.90;;;;;;;2.35;100.00;99869.47;5046002;28;20204;-78
2023/01/31 05:49:49;;;;;;;15.77;3.80;;;;;;;2.23;100.00;99868.81;5046750;28;20197;-78
2023/01/31 05:52:18;;;;;;;25.03;4.93;;;;;;;2.19;100.00;99869.75;5046049;28;20183;-79
2023/01/31 05:54:47;;;;;;;14.37;3.67;;;;;;;2.23;100.00;99855.75;5088180;28;20191;-78
2023/01/31 05:57:16;;;;;;;20.63;4.13;;;;;;;2.09;100.00;99857.72;5092477;28;20252;-78
2023/01/31 05:59:45;;;;;;;17.30;4.03;;;;;;;2.15;100.00;99851.53;5082924;28;20216;-77
2023/01/31 06:02:13;;;;;;;21.67;4.40;;;;;;;2.22;100.00;99846.19;5087862;28;20245;-78
2023/01/31 06:04:41;;;;;;;17.20;4.13;;;;;;;2.26;100.00;99847.84;5083771;28;20416;-78
2023/01/31 06:07:11;;;;;;;17.00;3.33;;;;;;;2.49;100.00;99847.38;5087591;28;20673;-78
2023/01/31 06:09:40;;;;;;;15.77;4.00;;;;;;;2.42;100.00;99844.94;5090104;28;20211;-78
2023/01/31 06:12:12;;;;;;;19.17;4.10;;;;;;;2.32;100.00;99848.59;5088928;28;20184;-78
2023/01/31 06:14:43;;;;;;;12.47;3.67;;;;;;;2.37;100.00;99846.75;5091065;28;20192;-78
2023/01/31 06:17:11;;;;;;;17.10;4.63;;;;;;;2.46;100.00;99850.06;5091025;28;20200;-78
2023/01/31 06:19:39;;;;;;;23.10;4.03;;;;;;;2.31;100.00;99860.81;5089710;28;20222;-78
2023/01/31 06:22:08;;;;;;;18.23;3.77;;;;;;;2.37;100.00;99852.00;5088811;28;20223;-78
2023/01/31 06:24:38;;;;;;;17.03;3.80;;;;;;;2.35;100.00;99849.41;5092071;28;20191;-78
2023/01/31 06:27:06;;;;;;;17.03;4.27;;;;;;;1.98;100.00;99852.72;5052323;28;20200;-78
2023/01/31 06:29:38;;;;;;;20.97;4.57;;;;;;;1.93;100.00;99858.88;5047849;28;20195;-78
2023/01/31 06:32:07;;;;;;;15.80;4.20;;;;;;;1.91;100.00;99851.09;5047635;28;20201;-78
2023/01/31 06:34:36;;;;;;;13.43;3.67;;;;;;;2.07;100.00;99851.69;5055392;28;20193;-78
2023/01/31 06:37:18;;;;;;;14.80;3.23;;;;;;;2.13;100.00;99851.59;4994031;28;20206;-78
2023/01/31 06:39:48;;;;;;;19.20;3.77;;;;;;;2.35;100.00;99844.19;4992051;28;20210;-78
2023/01/31 06:42:16;;;;;;;17.27;3.60;;;;;;;2.30;100.00;99846.00;4988737;28;20199;-78
2023/01/31 06:44:44;;;;;;;22.80;3.43;;;;;;;2.47;100.00;99853.53;5004651;28;20196;-78
2023/01/31 06:47:13;;;;;;;15.80;3.70;;;;;;;2.39;100.00;99844.97;5051185;28;20757;-78
2023/01/31 06:49:42;;;;;;;18.47;3.93;;;;;;;2.38;100.00;99865.03;5051343;28;20196;-78
2023/01/31 06:52:10;;;;;;;17.97;4.10;;;;;;;2.38;100.00;99865.03;5049468;28;20224;-78
2023/01/31 06:54:42;;;;;;;12.80;3.50;;;;;;;2.44;100.00;99854.47;5057888;28;20192;-78
2023/01/31 06:57:12;;;;;;;17.37;3.20;;;;;;;2.47;100.00;99870.06;5095597;28;20214;-78
2023/01/31 06:59:40;;;;;;;19.33;3.50;;;;;;;2.63;100.00;99861.94;5090051;28;20210;-78
2023/01/31 07:02:10;;;;;;;15.93;3.57;;;;;;;2.53;100.00;99863.88;5093169;28;20738;-78
2023/01/31 07:04:38;;;;;;;16.77;3.57;;;;;;;2.48;100.00;99858.72;5051066;28;20201;-78
2023/01/31 07:07:06;;;;;;;12.30;3.30;;;;;;;2.50;100.00;99851.69;5047239;28;20197;-78
2023/01/31 07:09:37;;;;;;;12.17;3.03;;;;;;;2.55;100.00;99851.63;5049405;28;20217;-78
2023/01/31 07:12:06;;;;;;;9.90;3.37;;;;;;;2.65;100.00;99849.69;5049943;28;20197;-78
2023/01/31 07:14:39;;;;;;;14.73;3.83;;;;;;;2.62;100.00;99860.22;5043788;28;20220;-78
2023/01/31 07:17:08;;;;;;;10.47;3.37;;;;;;;2.62;100.00;99852.38;5047895;28;20205;-78
2023/01/31 07:19:36;;;;;;;14.03;3.57;;;;;;;2.72;100.00;99857.38;5051518;28;20186;-78
2023/01/31 07:22:04;;;;;;;16.30;4.00;;;;;;;2.71;100.00;99844.34;5056686;28;20191;-78
2023/01/31 07:24:35;;;;;;;17.57;3.50;;;;;;;2.77;100.00;99846.81;5094202;28;20199;-78
2023/01/31 07:27:03;;;;;;;17.90;4.77;;;;;;;2.73;100.00;99851.25;5090304;28;20200;-78
2023/01/31 07:29:34;;;;;;;15.73;3.70;;;;;;;2.70;100.00;99846.09;5084156;28;20320;-78
2023/01/31 07:32:07;;;;;;;15.83;4.30;;;;;;;2.67;100.00;99847.91;5089198;28;20259;-78
2023/01/31 07:34:36;;;;;;;17.53;4.70;;;;;;;2.72;100.00;99846.06;5090487;28;20206;-78
2023/01/31 07:37:04;;;;;;;14.47;3.77;;;;;;;2.79;100.00;99845.00;5084944;28;20196;-78
2023/01/31 07:39:33;;;;;;;10.97;3.57;;;;;;;2.66;100.00;99843.56;5089286;28;20253;-78
2023/01/31 07:42:02;;;;;;;16.47;4.23;;;;;;;2.65;100.00;99839.22;5080036;28;20227;-78
2023/01/31 07:44:30;;;;;;;20.70;3.57;;;;;;;2.83;100.00;99849.31;5089462;28;20200;-78
2023/01/31 07:46:59;;;;;;;16.37;4.17;;;;;;;2.75;100.00;99841.59;5088256;28;20196;-78
2023/01/31 07:49:29;;;;;;;19.70;4.37;;;;;;;2.81;100.00;99838.88;5087721;28;20638;-78
2023/01/31 07:51:58;;;;;;;19.27;4.97;;;;;;;2.80;100.00;99844.16;5089110;28;20214;-78
2023/01/31 07:54:26;;;;;;;15.87;4.30;;;;;;;2.83;100.00;99842.31;5090608;28;20704;-78
2023/01/31 07:56:54;;;;;;;20.83;4.30;;;;;;;2.85;100.00;99844.88;5094502;28;20213;-78
2023/01/31 07:59:23;;;;;;;21.37;5.00;;;;;;;2.73;100.00;99842.53;5088871;28;20188;-78
2023/01/31 08:04:39;;;;;;;16.53;5.10;;;;;;;2.80;100.00;99846.75;5094399;28;20200;-78
2023/01/31 08:07:09;;;;;;;18.23;4.70;;;;;;;2.81;100.00;99840.63;5086248;28;20206;-78
2023/01/31 08:09:37;;;;;;;21.23;5.87;;;;;;;2.87;100.00;99837.88;5091010;28;20226;-78
2023/01/31 08:12:06;;;;;;;17.60;5.03;;;;;;;3.03;100.00;99831.41;5083855;28;20218;-78
2023/01/31 08:14:35;;;;;;;15.80;5.60;;;;;;;2.97;100.00;99828.91;5092245;28;20207;-79
2023/01/31 08:17:05;;;;;;;16.60;5.53;;;;;;;2.98;100.00;99829.78;5094593;28;20199;-78
2023/01/31 08:19:33;;;;;;;19.03;6.17;;;;;;;2.97;100.00;99836.75;5086256;28;20200;-78
2023/01/31 08:22:03;;;;;;;19.63;5.93;;;;;;;2.98;100.00;99837.63;5094469;28;20212;-78
2023/01/31 08:24:36;;;;;;;22.47;5.83;;;;;;;3.04;100.00;99840.97;5090851;28;20183;-78
2023/01/31 08:27:05;;;;;;;22.00;6.10;;;;;;;2.98;100.00;99842.84;5092275;28;20225;-78
2023/01/31 08:29:36;;;;;;;19.93;6.27;;;;;;;2.99;100.00;99841.97;5087725;28;20241;-78
2023/01/31 08:32:08;;;;;;;20.97;5.90;;;;;;;3.04;100.00;99842.72;5093123;28;20203;-78
2023/01/31 08:34:37;;;;;;;17.10;5.67;;;;;;;3.11;100.00;99841.72;5083932;28;20206;-78
2023/01/31 08:37:06;;;;;;;17.67;5.67;;;;;;;3.18;100.00;99835.41;5088030;28;20241;-78
2023/01/31 08:39:34;;;;;;;17.03;5.57;;;;;;;3.22;100.00;99836.22;5091557;28;20199;-78
2023/01/31 08:42:03;;;;;;;16.17;5.60;;;;;;;3.11;100.00;99829.47;5088067;28;20261;-78
2023/01/31 08:44:31;;;;;;;19.53;6.13;;;;;;;3.12;100.00;99825.09;5089958;28;20689;-78
2023/01/31 08:47:01;;;;;;;19.03;5.50;;;;;;;3.26;100.00;99828.25;5093885;28;20198;-78
2023/01/31 08:49:30;;;;;;;20.93;6.10;;;;;;;3.30;100.00;99822.06;5094233;28;20196;-78
2023/01/31 08:51:58;;;;;;;16.63;6.20;;;;;;;3.30;100.00;99822.06;5083739;28;20220;-78
2023/01/31 08:54:28;;;;;;;15.90;5.70;;;;;;;3.41;100.00;99830.50;5094970;28;20233;-78
2023/01/31 08:56:57;;;;;;;17.83;6.10;;;;;;;3.34;100.00;99841.16;5093754;28;20248;-78
2023/01/31 08:59:28;;;;;;;14.80;5.77;;;;;;;3.39;100.00;99840.16;5092304;28;20191;-78
2023/01/31 09:01:57;;;;;;;17.90;6.47;;;;;;;3.39;100.00;99841.94;5092178;28;20246;-78
2023/01/31 09:04:25;;;;;;;20.43;6.33;;;;;;;3.44;100.00;99851.38;5087804;28;20203;-78
2023/01/31 09:06:54;;;;;;;17.90;6.27;;;;;;;3.49;100.00;99838.19;5088273;28;20219;-78
2023/01/31 09:09:24;;;;;;;14.87;5.63;;;;;;;3.56;100.00;99850.22;5090744;28;20235;-78
2023/01/31 09:11:55;;;;;;;17.67;5.93;;;;;;;3.76;100.00;99841.84;5093391;28;20215;-78
2023/01/31 09:14:23;;;;;;;16.97;5.87;;;;;;;3.63;100.00;99833.47;5090510;28;20187;-78
2023/01/31 09:16:52;;;;;;;14.30;5.07;;;;;;;3.88;100.00;99820.59;5093261;28;20249;-78
2023/01/31 09:19:21;;;;;;;18.23;5.60;;;;;;;3.94;100.00;99811.69;5093503;28;20669;-78
2023/01/31 09:21:49;;;;;;;14.73;5.07;;;;;;;3.91;100.00;99814.41;5086521;28;20227;-78
2023/01/31 09:24:18;;;;;;;13.30;6.30;;;;;;;4.00;100.00;99809.78;5089230;28;20187;-78
2023/01/31 09:26:48;;;;;;;19.13;5.73;;;;;;;3.98;100.00;99819.47;5090252;28;20257;-78
2023/01/31 09:29:18;;;;;;;18.53;4.90;;;;;;;4.05;100.00;99814.91;5088812;28;20259;-78
2023/01/31 09:31:46;;;;;;;18.80;4.87;;;;;;;4.11;100.00;99809.50;5086602;28;20200;-78
2023/01/31 09:34:15;;;;;;;15.20;4.90;;;;;;;3.97;100.00;99799.41;5093209;28;20271;-78
2023/01/31 09:36:44;;;;;;;13.27;4.73;;;;;;;3.95;100.00;99785.47;5085007;28;20183;-78
2023/01/31 09:39:12;;;;;;;15.83;5.27;;;;;;;3.96;100.00;99788.97;5093007;28;20270;-78
2023/01/31 09:41:45;;;;;;;12.50;4.33;;;;;;;4.15;100.00;99787.56;5090310;28;20250;-78
2023/01/31 09:44:20;;;;;;;17.23;4.63;;;;;;;4.03;100.00;99793.13;5089515;28;20192;-79
2023/01/31 09:46:54;;;;;;;17.40;5.33;;;;;;;4.12;100.00;99782.38;5092438;28;20199;-78
2023/01/31 09:49:27;;;;;;;14.87;4.43;;;;;;;4.12;100.00;99792.88;5090037;28;20203;-78
2023/01/31 09:52:00;;;;;;;13.00;4.50;;;;;;;4.14;100.00;99788.44;5092437;28;20213;-79
2023/01/31 09:54:36;;;;;;;16.37;4.47;;;;;;;4.16;100.00;99778.78;5092667;28;20187;-78
2023/01/31 09:57:17;;;;;;;15.03;4.50;;;;;;;4.16;100.00;99778.78;5090064;28;20304;-78
2023/01/31 09:59:50;;;;;;;15.03;4.63;;;;;;;4.14;100.00;99784.94;5089864;28;20200;-78
2023/01/31 10:02:34;;;;;;;11.60;3.93;;;;;;;4.14;100.00;99780.56;5085539;28;20399;-78
2023/01/31 10:05:16;;;;;;;12.90;3.50;;;;;;;4.37;100.00;99781.69;5092567;28;20206;-78
2023/01/31 10:07:54;;;;;;;9.67;4.03;;;;;;;4.36;100.00;99770.34;5092274;28;20389;-78
2023/01/31 10:10:32;;;;;;;16.87;4.57;;;;;;;4.25;100.00;99778.53;5088700;28;20216;-79
2023/01/31 10:13:07;;;;;;;10.97;3.67;;;;;;;4.36;100.00;99770.34;5086164;28;20192;-79
2023/01/31 10:15:41;;;;;;;13.00;4.53;;;;;;;4.30;100.00;99755.66;5091564;28;20206;-78
2023/01/31 10:18:16;;;;;;;13.60;4.23;;;;;;;4.37;100.00;99766.81;5090588;28;20220;-78
2023/01/31 10:20:50;;;;;;;12.20;4.17;;;;;;;4.41;100.00;99765.81;5093838;28;20198;-78
2023/01/31 10:23:26;;;;;;;15.67;3.77;;;;;;;4.55;100.00;99758.41;5092426;28;20246;-78
2023/01/31 10:25:59;;;;;;;15.10;4.07;;;;;;;4.54;100.00;99754.09;5089030;28;20221;-78
2023/01/31 10:28:36;;;;;;;14.53;4.50;;;;;;;4.43;100.00;99765.78;5065995;28;20192;-78
2023/01/31 10:31:11;;;;;;;12.73;3.77;;;;;;;4.50;100.00;99757.69;5019904;28;20201;-78
2023/01/31 10:33:50;;;;;;;12.23;4.10;;;;;;;4.55;100.00;99750.56;5029305;28;20197;-78
2023/01/31 10:36:26;;;;;;;34.70;14.10;;;;;;;4.51;100.00;99742.81;5030211;28;20196;-78
2023/01/31 10:39:02;;;;;;;31.90;12.47;;;;;;;4.46;100.00;99745.56;5027623;28;20244;-78
2023/01/31 10:41:39;;;;;;;65.07;29.30;;;;;;;4.32;100.00;99732.00;5023668;28;20205;-78
2023/01/31 10:44:17;;;;;;;52.53;21.37;;;;;;;4.43;100.00;99734.28;5030002;28;20213;-78
2023/01/31 10:46:47;;;;;;;52.03;17.90;;;;;;;4.40;100.00;99745.75;5037534;28;20501;-78
2023/01/31 10:49:22;;;;;;;65.53;28.53;;;;;;;4.36;100.00;99733.66;5061491;28;20229;-78
2023/01/31 10:52:07;;;;;;;50.43;26.40;;;;;;;4.40;100.00;99737.88;5086040;28;20256;-78
2023/01/31 10:54:46;;;;;;;86.90;41.07;;;;;;;4.38;100.00;99737.06;5084598;28;20195;-78
2023/01/31 10:57:15;;;;;;;17.70;6.67;;;;;;;4.34;100.00;99729.31;5092185;28;20191;-78
2023/01/31 10:59:46;;;;;;;14.93;5.40;;;;;;;4.28;100.00;99744.34;5088055;28;20211;-77
2023/01/31 11:02:20;;;;;;;16.23;5.80;;;;;;;4.31;100.00;99727.66;5086118;28;20220;-78
2023/01/31 11:04:51;;;;;;;22.67;9.27;;;;;;;4.38;100.00;99718.72;5091142;28;20194;-78
2023/01/31 11:07:22;;;;;;;15.37;7.53;;;;;;;4.34;100.00;99714.44;5092310;28;20194;-78
2023/01/31 11:09:53;;;;;;;21.67;8.07;;;;;;;4.48;100.00;99707.03;5090194;28;20224;-78
2023/01/31 11:12:33;;;;;;;15.20;5.13;;;;;;;4.35;100.00;99724.06;5088340;28;20264;-78
2023/01/31 11:15:07;;;;;;;11.80;4.23;;;;;;;4.45;100.00;99701.03;5090955;28;20208;-78
2023/01/31 11:17:37;;;;;;;18.93;6.50;;;;;;;4.40;100.00;99690.69;5095971;28;20278;-78
2023/01/31 11:20:21;;;;;;;18.40;6.10;;;;;;;4.39;100.00;99686.34;5094265;28;20253;-78
2023/01/31 11:22:51;;;;;;;14.27;5.63;;;;;;;4.36;100.00;99680.34;5092813;28;20264;-78
2023/01/31 11:25:21;;;;;;;14.53;4.73;;;;;;;4.50;100.00;99686.88;5091544;28;20195;-78
2023/01/31 11:27:53;;;;;;;12.13;4.47;;;;;;;4.45;100.00;99687.94;5095216;28;20269;-78
2023/01/31 11:30:27;;;;;;;12.63;4.80;;;;;;;4.49;100.00;99672.03;5088936;28;20347;-79
2023/01/31 11:32:56;;;;;;;12.17;5.00;;;;;;;4.37;100.00;99659.31;5095414;28;20216;-78
2023/01/31 11:35:29;;;;;;;18.57;6.17;;;;;;;4.41;100.00;99658.28;5090199;28;20234;-78
2023/01/31 11:37:58;;;;;;;18.80;5.07;;;;;;;4.44;100.00;99655.59;5093443;28;20650;-79
2023/01/31 11:40:30;;;;;;;10.53;4.60;;;;;;;4.47;100.00;99662.50;5093351;28;20283;-77
2023/01/31 11:43:00;;;;;;;17.17;5.40;;;;;;;4.41;100.00;99644.31;5090362;28;20239;-78
2023/01/31 11:45:31;;;;;;;10.47;5.47;;;;;;;4.35;100.00;99636.66;5093866;28;20247;-78
2023/01/31 11:48:07;;;;;;;15.03;5.13;;;;;;;4.44;100.00;99633.72;5090151;28;20184;-78
2023/01/31 11:50:39;;;;;;;15.27;7.27;;;;;;;4.36;100.00;99612.16;5095978;28;20195;-78
2023/01/31 11:53:17;;;;;;;24.80;12.87;;;;;;;4.41;100.00;99605.00;5093059;28;20248;-78
2023/01/31 11:55:47;;;;;;;25.93;15.40;;;;;;;4.42;100.00;99604.94;5087056;28;20237;-78